sensor_id;sensor_type;location;lat;lon;timestamp;temperature;humidity
71047;SHT31;58703;48.978;8.982;2023-02-17T00:03:48;4.93;98.57
71047;SHT31;58703;48.978;8.982;2023-02-17T00:06:15;4.99;98.68
71047;SHT31;58703;48.978;8.982;2023-02-17T00:08:42;5.04;98.38
71047;SHT31;58703;48.978;8.982;2023-02-17T00:11:07;5.12;98.03
71047;SHT31;58703;48.978;8.982;2023-02-17T00:13:33;5.04;98.42
71047;SHT31;58703;48.978;8.982;2023-02-17T00:15:59;5.18;97.90
71047;SHT31;58703;48.978;8.982;2023-02-17T00:18:24;5.23;97.62
71047;SHT31;58703;48.978;8.982;2023-02-17T00:20:50;5.23;97.41
71047;SHT31;58703;48.978;8.982;2023-02-17T00:23:16;5.13;97.45
71047;SHT31;58703;48.978;8.982;2023-02-17T00:25:41;5.13;97.79
71047;SHT31;58703;48.978;8.982;2023-02-17T00:28:07;5.13;97.51
71047;SHT31;58703;48.978;8.982;2023-02-17T00:30:33;5.20;97.17
71047;SHT31;58703;48.978;8.982;2023-02-17T00:32:58;5.42;96.95
71047;SHT31;58703;48.978;8.982;2023-02-17T00:35:24;5.40;96.38
71047;SHT31;58703;48.978;8.982;2023-02-17T00:37:49;5.29;97.16
71047;SHT31;58703;48.978;8.982;2023-02-17T00:40:15;5.09;97.42
71047;SHT31;58703;48.978;8.982;2023-02-17T00:42:41;5.28;97.31
71047;SHT31;58703;48.978;8.982;2023-02-17T00:45:07;5.29;97.49
71047;SHT31;58703;48.978;8.982;2023-02-17T00:47:33;5.46;96.92
71047;SHT31;58703;48.978;8.982;2023-02-17T00:49:58;5.43;97.07
71047;SHT31;58703;48.978;8.982;2023-02-17T00:52:24;5.54;96.45
71047;SHT31;58703;48.978;8.982;2023-02-17T00:54:49;5.44;96.39
71047;SHT31;58703;48.978;8.982;2023-02-17T00:57:15;5.28;96.45
71047;SHT31;58703;48.978;8.982;2023-02-17T00:59:40;5.25;96.75
71047;SHT31;58703;48.978;8.982;2023-02-17T01:02:06;5.42;96.80
71047;SHT31;58703;48.978;8.982;2023-02-17T01:04:31;5.57;96.06
71047;SHT31;58703;48.978;8.982;2023-02-17T01:06:57;5.54;95.91
71047;SHT31;58703;48.978;8.982;2023-02-17T01:09:23;5.40;96.38
71047;SHT31;58703;48.978;8.982;2023-02-17T01:11:48;5.54;95.95
71047;SHT31;58703;48.978;8.982;2023-02-17T01:14:14;5.64;95.82
71047;SHT31;58703;48.978;8.982;2023-02-17T01:16:44;5.61;95.57
71047;SHT31;58703;48.978;8.982;2023-02-17T01:19:14;5.52;95.53
71047;SHT31;58703;48.978;8.982;2023-02-17T01:21:40;5.60;95.93
71047;SHT31;58703;48.978;8.982;2023-02-17T01:24:07;5.66;95.78
71047;SHT31;58703;48.978;8.982;2023-02-17T01:26:34;5.67;95.36
71047;SHT31;58703;48.978;8.982;2023-02-17T01:29:02;5.73;94.70
71047;SHT31;58703;48.978;8.982;2023-02-17T01:31:28;5.78;95.01
71047;SHT31;58703;48.978;8.982;2023-02-17T01:33:56;5.86;94.25
71047;SHT31;58703;48.978;8.982;2023-02-17T01:36:22;5.70;94.81
71047;SHT31;58703;48.978;8.982;2023-02-17T01:38:47;5.53;95.91
71047;SHT31;58703;48.978;8.982;2023-02-17T01:41:14;5.61;95.77
71047;SHT31;58703;48.978;8.982;2023-02-17T01:43:41;5.53;96.26
71047;SHT31;58703;48.978;8.982;2023-02-17T01:46:07;5.50;96.38
71047;SHT31;58703;48.978;8.982;2023-02-17T01:48:41;5.53;96.73
71047;SHT31;58703;48.978;8.982;2023-02-17T01:51:10;5.59;96.35
71047;SHT31;58703;48.978;8.982;2023-02-17T01:56:09;5.70;95.89
71047;SHT31;58703;48.978;8.982;2023-02-17T01:58:38;5.56;95.80
71047;SHT31;58703;48.978;8.982;2023-02-17T02:01:05;5.46;96.22
71047;SHT31;58703;48.978;8.982;2023-02-17T02:03:32;5.43;96.51
71047;SHT31;58703;48.978;8.982;2023-02-17T02:06:00;5.36;96.64
71047;SHT31;58703;48.978;8.982;2023-02-17T02:08:29;5.49;96.52
71047;SHT31;58703;48.978;8.982;2023-02-17T02:10:58;5.29;96.70
71047;SHT31;58703;48.978;8.982;2023-02-17T02:13:24;5.44;96.89
71047;SHT31;58703;48.978;8.982;2023-02-17T02:16:19;5.54;96.51
71047;SHT31;58703;48.978;8.982;2023-02-17T02:21:27;5.47;95.90
71047;SHT31;58703;48.978;8.982;2023-02-17T02:29:32;5.22;96.83
71047;SHT31;58703;48.978;8.982;2023-02-17T02:40:35;5.53;95.78
71047;SHT31;58703;48.978;8.982;2023-02-17T02:43:04;5.50;95.88
71047;SHT31;58703;48.978;8.982;2023-02-17T02:45:30;5.67;95.49
71047;SHT31;58703;48.978;8.982;2023-02-17T02:47:57;5.74;95.86
71047;SHT31;58703;48.978;8.982;2023-02-17T02:50:41;5.81;95.16
71047;SHT31;58703;48.978;8.982;2023-02-17T03:01:36;5.69;95.70
71047;SHT31;58703;48.978;8.982;2023-02-17T03:06:51;5.75;95.95
71047;SHT31;58703;48.978;8.982;2023-02-17T03:09:23;5.77;95.74
71047;SHT31;58703;48.978;8.982;2023-02-17T03:11:49;5.60;95.90
71047;SHT31;58703;48.978;8.982;2023-02-17T03:14:18;5.54;96.27
71047;SHT31;58703;48.978;8.982;2023-02-17T03:16:45;5.50;96.67
71047;SHT31;58703;48.978;8.982;2023-02-17T03:19:12;5.50;96.72
71047;SHT31;58703;48.978;8.982;2023-02-17T03:21:41;5.52;96.45
71047;SHT31;58703;48.978;8.982;2023-02-17T03:24:08;5.56;96.10
71047;SHT31;58703;48.978;8.982;2023-02-17T03:26:34;5.61;95.60
71047;SHT31;58703;48.978;8.982;2023-02-17T03:28:59;5.87;95.50
71047;SHT31;58703;48.978;8.982;2023-02-17T03:31:25;5.78;94.59
71047;SHT31;58703;48.978;8.982;2023-02-17T03:33:51;5.86;94.01
71047;SHT31;58703;48.978;8.982;2023-02-17T03:36:16;5.98;94.84
71047;SHT31;58703;48.978;8.982;2023-02-17T03:38:42;6.00;94.34
71047;SHT31;58703;48.978;8.982;2023-02-17T03:41:07;6.01;93.63
71047;SHT31;58703;48.978;8.982;2023-02-17T03:43:33;6.14;93.00
71047;SHT31;58703;48.978;8.982;2023-02-17T03:45:59;6.20;92.93
71047;SHT31;58703;48.978;8.982;2023-02-17T03:48:26;7.41;86.19
71047;SHT31;58703;48.978;8.982;2023-02-17T03:50:52;8.01;83.86
71047;SHT31;58703;48.978;8.982;2023-02-17T03:53:17;8.34;82.98
71047;SHT31;58703;48.978;8.982;2023-02-17T03:55:43;8.60;81.46
71047;SHT31;58703;48.978;8.982;2023-02-17T03:58:08;9.31;78.82
71047;SHT31;58703;48.978;8.982;2023-02-17T04:00:34;9.79;77.74
71047;SHT31;58703;48.978;8.982;2023-02-17T04:02:59;10.21;77.62
71047;SHT31;58703;48.978;8.982;2023-02-17T04:05:25;10.06;78.70
71047;SHT31;58703;48.978;8.982;2023-02-17T04:07:51;10.09;78.98
71047;SHT31;58703;48.978;8.982;2023-02-17T04:10:17;10.10;79.20
71047;SHT31;58703;48.978;8.982;2023-02-17T04:12:42;10.24;78.91
71047;SHT31;58703;48.978;8.982;2023-02-17T04:15:08;10.04;79.41
71047;SHT31;58703;48.978;8.982;2023-02-17T04:17:37;10.09;79.31
71047;SHT31;58703;48.978;8.982;2023-02-17T04:20:04;10.11;79.51
71047;SHT31;58703;48.978;8.982;2023-02-17T04:22:30;10.10;80.18
71047;SHT31;58703;48.978;8.982;2023-02-17T04:24:55;10.06;80.70
71047;SHT31;58703;48.978;8.982;2023-02-17T04:27:21;10.07;80.88
71047;SHT31;58703;48.978;8.982;2023-02-17T04:29:46;10.00;81.27
71047;SHT31;58703;48.978;8.982;2023-02-17T04:32:12;10.34;79.70
71047;SHT31;58703;48.978;8.982;2023-02-17T04:34:37;10.37;79.69
71047;SHT31;58703;48.978;8.982;2023-02-17T04:37:03;10.27;80.49
71047;SHT31;58703;48.978;8.982;2023-02-17T04:39:29;10.09;81.33
71047;SHT31;58703;48.978;8.982;2023-02-17T04:41:54;10.10;81.51
71047;SHT31;58703;48.978;8.982;2023-02-17T04:44:20;10.13;81.14
71047;SHT31;58703;48.978;8.982;2023-02-17T04:46:45;10.04;81.76
71047;SHT31;58703;48.978;8.982;2023-02-17T04:49:11;10.06;81.59
71047;SHT31;58703;48.978;8.982;2023-02-17T04:51:36;10.04;81.92
71047;SHT31;58703;48.978;8.982;2023-02-17T04:54:02;10.04;81.99
71047;SHT31;58703;48.978;8.982;2023-02-17T04:56:27;10.00;82.19
71047;SHT31;58703;48.978;8.982;2023-02-17T04:58:53;9.96;82.54
71047;SHT31;58703;48.978;8.982;2023-02-17T05:01:18;9.94;82.53
71047;SHT31;58703;48.978;8.982;2023-02-17T05:03:44;9.90;82.93
71047;SHT31;58703;48.978;8.982;2023-02-17T05:06:09;9.90;82.92
71047;SHT31;58703;48.978;8.982;2023-02-17T05:08:35;9.79;83.48
71047;SHT31;58703;48.978;8.982;2023-02-17T05:11:00;9.80;83.47
71047;SHT31;58703;48.978;8.982;2023-02-17T05:13:26;9.86;83.17
71047;SHT31;58703;48.978;8.982;2023-02-17T05:15:52;9.87;83.14
71047;SHT31;58703;48.978;8.982;2023-02-17T05:18:20;10.04;82.51
71047;SHT31;58703;48.978;8.982;2023-02-17T05:20:45;9.96;83.13
71047;SHT31;58703;48.978;8.982;2023-02-17T05:23:11;9.87;83.36
71047;SHT31;58703;48.978;8.982;2023-02-17T05:25:37;9.97;82.92
71047;SHT31;58703;48.978;8.982;2023-02-17T05:28:02;10.00;82.98
71047;SHT31;58703;48.978;8.982;2023-02-17T05:30:28;9.97;83.28
71047;SHT31;58703;48.978;8.982;2023-02-17T05:32:53;9.96;83.31
71047;SHT31;58703;48.978;8.982;2023-02-17T05:35:19;9.93;83.36
71047;SHT31;58703;48.978;8.982;2023-02-17T05:37:44;10.17;82.04
71047;SHT31;58703;48.978;8.982;2023-02-17T05:40:10;10.27;81.57
71047;SHT31;58703;48.978;8.982;2023-02-17T05:42:36;10.30;81.34
71047;SHT31;58703;48.978;8.982;2023-02-17T05:45:02;10.30;81.32
71047;SHT31;58703;48.978;8.982;2023-02-17T05:47:27;10.34;80.96
71047;SHT31;58703;48.978;8.982;2023-02-17T05:49:53;10.34;80.78
71047;SHT31;58703;48.978;8.982;2023-02-17T05:52:19;10.28;81.13
71047;SHT31;58703;48.978;8.982;2023-02-17T05:54:45;10.18;81.67
71047;SHT31;58703;48.978;8.982;2023-02-17T05:57:10;10.16;81.48
71047;SHT31;58703;48.978;8.982;2023-02-17T05:59:36;10.28;80.87
71047;SHT31;58703;48.978;8.982;2023-02-17T06:02:01;10.47;79.80
71047;SHT31;58703;48.978;8.982;2023-02-17T06:04:27;10.36;80.30
71047;SHT31;58703;48.978;8.982;2023-02-17T06:06:52;10.65;78.99
71047;SHT31;58703;48.978;8.982;2023-02-17T06:09:18;10.44;79.86
71047;SHT31;58703;48.978;8.982;2023-02-17T06:11:44;10.38;80.37
71047;SHT31;58703;48.978;8.982;2023-02-17T06:14:09;10.52;79.65
71047;SHT31;58703;48.978;8.982;2023-02-17T06:16:35;10.52;79.58
71047;SHT31;58703;48.978;8.982;2023-02-17T06:19:00;10.57;79.54
71047;SHT31;58703;48.978;8.982;2023-02-17T06:21:27;10.69;78.73
71047;SHT31;58703;48.978;8.982;2023-02-17T06:23:53;10.64;78.91
71047;SHT31;58703;48.978;8.982;2023-02-17T06:26:19;10.64;79.04
71047;SHT31;58703;48.978;8.982;2023-02-17T06:28:44;10.61;79.17
71047;SHT31;58703;48.978;8.982;2023-02-17T06:31:10;10.55;79.65
71047;SHT31;58703;48.978;8.982;2023-02-17T06:33:35;10.41;80.42
71047;SHT31;58703;48.978;8.982;2023-02-17T06:36:01;10.28;81.07
71047;SHT31;58703;48.978;8.982;2023-02-17T06:38:26;10.27;81.14
71047;SHT31;58703;48.978;8.982;2023-02-17T06:40:53;10.40;80.82
71047;SHT31;58703;48.978;8.982;2023-02-17T06:43:19;10.40;81.03
71047;SHT31;58703;48.978;8.982;2023-02-17T06:45:45;10.45;80.81
71047;SHT31;58703;48.978;8.982;2023-02-17T06:48:10;10.41;81.73
71047;SHT31;58703;48.978;8.982;2023-02-17T06:50:36;10.33;82.46
71047;SHT31;58703;48.978;8.982;2023-02-17T06:53:02;10.27;83.07
71047;SHT31;58703;48.978;8.982;2023-02-17T06:55:27;10.30;83.30
71047;SHT31;58703;48.978;8.982;2023-02-17T06:57:53;10.21;83.65
71047;SHT31;58703;48.978;8.982;2023-02-17T07:00:19;10.30;83.46
71047;SHT31;58703;48.978;8.982;2023-02-17T07:02:45;10.17;83.88
71047;SHT31;58703;48.978;8.982;2023-02-17T07:05:11;10.14;84.11
71047;SHT31;58703;48.978;8.982;2023-02-17T07:07:36;10.18;83.95
71047;SHT31;58703;48.978;8.982;2023-02-17T07:10:03;10.10;84.43
71047;SHT31;58703;48.978;8.982;2023-02-17T07:12:28;10.14;83.94
71047;SHT31;58703;48.978;8.982;2023-02-17T07:14:54;10.22;83.74
71047;SHT31;58703;48.978;8.982;2023-02-17T07:17:20;10.18;84.12
71047;SHT31;58703;48.978;8.982;2023-02-17T07:19:45;10.04;84.65
71047;SHT31;58703;48.978;8.982;2023-02-17T07:22:11;10.07;84.60
71047;SHT31;58703;48.978;8.982;2023-02-17T07:24:36;10.13;84.45
71047;SHT31;58703;48.978;8.982;2023-02-17T07:27:04;10.10;84.73
71047;SHT31;58703;48.978;8.982;2023-02-17T07:29:30;10.04;85.02
71047;SHT31;58703;48.978;8.982;2023-02-17T07:31:55;10.18;84.84
71047;SHT31;58703;48.978;8.982;2023-02-17T07:34:21;10.13;85.12
71047;SHT31;58703;48.978;8.982;2023-02-17T07:36:46;10.07;85.35
71047;SHT31;58703;48.978;8.982;2023-02-17T07:39:12;10.11;85.39
71047;SHT31;58703;48.978;8.982;2023-02-17T07:41:38;10.04;85.75
71047;SHT31;58703;48.978;8.982;2023-02-17T07:44:03;10.09;85.74
71047;SHT31;58703;48.978;8.982;2023-02-17T07:46:29;10.11;85.71
71047;SHT31;58703;48.978;8.982;2023-02-17T07:48:57;10.13;85.77
71047;SHT31;58703;48.978;8.982;2023-02-17T07:51:23;10.20;85.49
71047;SHT31;58703;48.978;8.982;2023-02-17T07:53:50;10.13;86.11
71047;SHT31;58703;48.978;8.982;2023-02-17T07:56:18;10.20;85.86
71047;SHT31;58703;48.978;8.982;2023-02-17T07:58:46;10.21;86.07
71047;SHT31;58703;48.978;8.982;2023-02-17T08:01:14;10.22;86.17
71047;SHT31;58703;48.978;8.982;2023-02-17T08:03:40;10.22;86.13
71047;SHT31;58703;48.978;8.982;2023-02-17T08:06:13;10.30;85.94
71047;SHT31;58703;48.978;8.982;2023-02-17T08:08:43;10.36;85.87
71047;SHT31;58703;48.978;8.982;2023-02-17T08:11:28;10.41;85.58
71047;SHT31;58703;48.978;8.982;2023-02-17T08:14:32;10.41;85.84
71047;SHT31;58703;48.978;8.982;2023-02-17T08:16:58;10.40;86.07
71047;SHT31;58703;48.978;8.982;2023-02-17T08:19:24;10.44;85.94
71047;SHT31;58703;48.978;8.982;2023-02-17T08:21:51;10.42;85.96
71047;SHT31;58703;48.978;8.982;2023-02-17T08:24:17;10.47;86.03
71047;SHT31;58703;48.978;8.982;2023-02-17T08:26:44;10.51;85.94
71047;SHT31;58703;48.978;8.982;2023-02-17T08:29:10;10.60;85.53
71047;SHT31;58703;48.978;8.982;2023-02-17T08:31:36;10.64;85.15
71047;SHT31;58703;48.978;8.982;2023-02-17T08:34:05;10.65;84.93
71047;SHT31;58703;48.978;8.982;2023-02-17T08:36:31;10.62;85.18
71047;SHT31;58703;48.978;8.982;2023-02-17T08:38:57;10.60;85.60
71047;SHT31;58703;48.978;8.982;2023-02-17T08:41:31;10.57;85.13
71047;SHT31;58703;48.978;8.982;2023-02-17T08:43:58;10.61;85.21
71047;SHT31;58703;48.978;8.982;2023-02-17T08:46:25;10.60;85.05
71047;SHT31;58703;48.978;8.982;2023-02-17T08:48:52;10.67;84.84
71047;SHT31;58703;48.978;8.982;2023-02-17T08:51:22;10.61;85.11
71047;SHT31;58703;48.978;8.982;2023-02-17T08:53:51;10.68;84.72
71047;SHT31;58703;48.978;8.982;2023-02-17T08:56:19;10.78;84.33
71047;SHT31;58703;48.978;8.982;2023-02-17T08:58:44;10.72;84.60
71047;SHT31;58703;48.978;8.982;2023-02-17T09:01:10;10.81;84.44
71047;SHT31;58703;48.978;8.982;2023-02-17T09:03:37;10.93;83.84
71047;SHT31;58703;48.978;8.982;2023-02-17T09:06:03;10.95;83.72
71047;SHT31;58703;48.978;8.982;2023-02-17T09:08:29;11.03;84.09
71047;SHT31;58703;48.978;8.982;2023-02-17T09:10:55;11.12;83.46
71047;SHT31;58703;48.978;8.982;2023-02-17T09:13:20;11.22;83.47
71047;SHT31;58703;48.978;8.982;2023-02-17T09:15:46;11.20;83.42
71047;SHT31;58703;48.978;8.982;2023-02-17T09:18:14;11.27;83.38
71047;SHT31;58703;48.978;8.982;2023-02-17T09:20:39;11.32;83.49
71047;SHT31;58703;48.978;8.982;2023-02-17T09:23:05;11.27;83.53
71047;SHT31;58703;48.978;8.982;2023-02-17T09:25:31;11.29;83.54
71047;SHT31;58703;48.978;8.982;2023-02-17T09:27:58;11.39;82.97
71047;SHT31;58703;48.978;8.982;2023-02-17T09:30:23;11.57;82.81
71047;SHT31;58703;48.978;8.982;2023-02-17T09:32:49;11.70;81.98
71047;SHT31;58703;48.978;8.982;2023-02-17T09:35:16;11.84;82.12
71047;SHT31;58703;48.978;8.982;2023-02-17T09:37:41;11.88;81.55
71047;SHT31;58703;48.978;8.982;2023-02-17T09:40:14;11.78;82.25
71047;SHT31;58703;48.978;8.982;2023-02-17T09:42:40;11.75;82.30
71047;SHT31;58703;48.978;8.982;2023-02-17T09:45:24;11.67;82.79
71047;SHT31;58703;48.978;8.982;2023-02-17T09:47:52;11.60;82.89
71047;SHT31;58703;48.978;8.982;2023-02-17T09:50:26;11.59;83.23
71047;SHT31;58703;48.978;8.982;2023-02-17T09:53:38;11.57;82.85
71047;SHT31;58703;48.978;8.982;2023-02-17T09:56:04;11.70;82.26
71047;SHT31;58703;48.978;8.982;2023-02-17T09:58:47;11.87;81.77
71047;SHT31;58703;48.978;8.982;2023-02-17T10:01:19;11.81;82.15
71047;SHT31;58703;48.978;8.982;2023-02-17T10:06:52;11.94;81.81
71047;SHT31;58703;48.978;8.982;2023-02-17T10:09:43;11.98;82.07
71047;SHT31;58703;48.978;8.982;2023-02-17T10:12:16;11.95;81.69
71047;SHT31;58703;48.978;8.982;2023-02-17T10:14:50;11.93;81.81
71047;SHT31;58703;48.978;8.982;2023-02-17T10:20:10;12.02;81.68
71047;SHT31;58703;48.978;8.982;2023-02-17T10:22:37;12.05;82.03
71047;SHT31;58703;48.978;8.982;2023-02-17T10:25:14;12.25;81.99
71047;SHT31;58703;48.978;8.982;2023-02-17T10:27:45;12.20;82.01
71047;SHT31;58703;48.978;8.982;2023-02-17T10:30:54;12.21;82.10
71047;SHT31;58703;48.978;8.982;2023-02-17T10:34:37;12.35;81.63
71047;SHT31;58703;48.978;8.982;2023-02-17T10:36:47;12.28;81.91
71047;SHT31;58703;48.978;8.982;2023-02-17T10:41:56;12.22;81.92
71047;SHT31;58703;48.978;8.982;2023-02-17T10:44:23;12.25;81.78
71047;SHT31;58703;48.978;8.982;2023-02-17T10:46:50;12.29;81.82
71047;SHT31;58703;48.978;8.982;2023-02-17T10:49:26;12.44;82.27
71047;SHT31;58703;48.978;8.982;2023-02-17T10:51:53;12.45;82.46
71047;SHT31;58703;48.978;8.982;2023-02-17T10:54:38;12.52;81.90
71047;SHT31;58703;48.978;8.982;2023-02-17T10:57:07;12.69;81.19
71047;SHT31;58703;48.978;8.982;2023-02-17T10:59:39;12.90;80.56
71047;SHT31;58703;48.978;8.982;2023-02-17T11:02:17;12.89;80.52
71047;SHT31;58703;48.978;8.982;2023-02-17T11:04:49;13.09;79.89
71047;SHT31;58703;48.978;8.982;2023-02-17T11:07:16;13.23;79.81
71047;SHT31;58703;48.978;8.982;2023-02-17T11:09:49;13.38;78.95
71047;SHT31;58703;48.978;8.982;2023-02-17T11:12:20;13.31;79.03
71047;SHT31;58703;48.978;8.982;2023-02-17T11:14:52;13.21;79.69
71047;SHT31;58703;48.978;8.982;2023-02-17T11:17:34;13.06;80.82
71047;SHT31;58703;48.978;8.982;2023-02-17T11:20:04;12.99;81.32
71047;SHT31;58703;48.978;8.982;2023-02-17T11:22:33;13.17;80.18
71047;SHT31;58703;48.978;8.982;2023-02-17T11:25:04;13.19;80.00
71047;SHT31;58703;48.978;8.982;2023-02-17T11:27:30;13.24;79.45
71047;SHT31;58703;48.978;8.982;2023-02-17T11:30:14;13.19;80.12
71047;SHT31;58703;48.978;8.982;2023-02-17T11:32:40;13.28;80.23
71047;SHT31;58703;48.978;8.982;2023-02-17T11:35:24;13.10;79.56
71047;SHT31;58703;48.978;8.982;2023-02-17T11:37:51;13.13;79.75
71047;SHT31;58703;48.978;8.982;2023-02-17T11:40:25;13.34;79.36
71047;SHT31;58703;48.978;8.982;2023-02-17T11:42:58;13.27;79.02
71047;SHT31;58703;48.978;8.982;2023-02-17T11:45:28;13.36;79.33
71047;SHT31;58703;48.978;8.982;2023-02-17T11:56:09;13.26;79.11
71047;SHT31;58703;48.978;8.982;2023-02-17T12:01:57;13.30;78.82
71047;SHT31;58703;48.978;8.982;2023-02-17T12:04:31;13.36;78.53
71047;SHT31;58703;48.978;8.982;2023-02-17T12:12:34;13.30;79.06
71047;SHT31;58703;48.978;8.982;2023-02-17T12:20:26;13.38;79.02
71047;SHT31;58703;48.978;8.982;2023-02-17T12:25:43;13.64;78.90
71047;SHT31;58703;48.978;8.982;2023-02-17T12:28:32;13.55;78.61
71047;SHT31;58703;48.978;8.982;2023-02-17T12:34:00;13.64;78.55
71047;SHT31;58703;48.978;8.982;2023-02-17T12:36:32;13.72;78.78
71047;SHT31;58703;48.978;8.982;2023-02-17T12:39:04;13.55;78.59
71047;SHT31;58703;48.978;8.982;2023-02-17T12:41:47;13.53;79.01
71047;SHT31;58703;48.978;8.982;2023-02-17T12:44:21;13.40;79.16
71047;SHT31;58703;48.978;8.982;2023-02-17T12:46:50;13.48;79.16
71047;SHT31;58703;48.978;8.982;2023-02-17T12:49:33;13.46;79.03
71047;SHT31;58703;48.978;8.982;2023-02-17T12:52:17;13.57;78.70
71047;SHT31;58703;48.978;8.982;2023-02-17T12:54:55;13.57;78.63
71047;SHT31;58703;48.978;8.982;2023-02-17T12:57:48;13.47;78.68
71047;SHT31;58703;48.978;8.982;2023-02-17T13:00:39;13.46;79.10
71047;SHT31;58703;48.978;8.982;2023-02-17T13:03:07;13.43;79.16
71047;SHT31;58703;48.978;8.982;2023-02-17T13:05:38;13.50;79.16
71047;SHT31;58703;48.978;8.982;2023-02-17T13:09:15;13.61;79.11
71047;SHT31;58703;48.978;8.982;2023-02-17T13:11:29;13.61;79.27
71047;SHT31;58703;48.978;8.982;2023-02-17T13:13:55;13.50;79.15
71047;SHT31;58703;48.978;8.982;2023-02-17T13:16:21;13.67;79.10
71047;SHT31;58703;48.978;8.982;2023-02-17T13:18:48;13.74;79.14
71047;SHT31;58703;48.978;8.982;2023-02-17T13:26:37;13.67;79.06
71047;SHT31;58703;48.978;8.982;2023-02-17T13:31:57;13.79;78.46
71047;SHT31;58703;48.978;8.982;2023-02-17T13:36:54;13.98;78.79
71047;SHT31;58703;48.978;8.982;2023-02-17T13:41:58;13.79;78.15
71047;SHT31;58703;48.978;8.982;2023-02-17T13:44:38;13.94;78.38
71047;SHT31;58703;48.978;8.982;2023-02-17T13:47:17;13.94;78.51
71047;SHT31;58703;48.978;8.982;2023-02-17T13:49:54;14.39;77.52
71047;SHT31;58703;48.978;8.982;2023-02-17T13:52:30;14.47;76.71
71047;SHT31;58703;48.978;8.982;2023-02-17T13:54:58;14.97;75.73
71047;SHT31;58703;48.978;8.982;2023-02-17T13:57:29;14.57;76.11
71047;SHT31;58703;48.978;8.982;2023-02-17T14:02:44;14.84;75.60
71047;SHT31;58703;48.978;8.982;2023-02-17T14:08:03;14.29;76.94
71047;SHT31;58703;48.978;8.982;2023-02-17T14:10:29;14.22;77.70
71047;SHT31;58703;48.978;8.982;2023-02-17T14:12:55;14.46;76.74
71047;SHT31;58703;48.978;8.982;2023-02-17T14:15:23;14.11;77.76
71047;SHT31;58703;48.978;8.982;2023-02-17T14:17:50;14.11;77.40
71047;SHT31;58703;48.978;8.982;2023-02-17T14:20:33;13.88;78.53
71047;SHT31;58703;48.978;8.982;2023-02-17T14:23:11;14.02;78.20
71047;SHT31;58703;48.978;8.982;2023-02-17T14:25:42;13.86;78.79
71047;SHT31;58703;48.978;8.982;2023-02-17T14:28:36;13.89;78.85
71047;SHT31;58703;48.978;8.982;2023-02-17T14:31:10;13.82;78.77
71047;SHT31;58703;48.978;8.982;2023-02-17T14:33:36;14.11;78.38
71047;SHT31;58703;48.978;8.982;2023-02-17T14:36:03;14.64;76.73
71047;SHT31;58703;48.978;8.982;2023-02-17T14:38:34;15.03;75.38
71047;SHT31;58703;48.978;8.982;2023-02-17T14:41:07;15.23;74.51
71047;SHT31;58703;48.978;8.982;2023-02-17T14:43:34;15.59;73.58
71047;SHT31;58703;48.978;8.982;2023-02-17T14:45:59;15.35;73.58
71047;SHT31;58703;48.978;8.982;2023-02-17T14:48:25;15.61;73.41
71047;SHT31;58703;48.978;8.982;2023-02-17T14:50:50;15.70;72.99
71047;SHT31;58703;48.978;8.982;2023-02-17T14:53:28;15.32;74.57
71047;SHT31;58703;48.978;8.982;2023-02-17T14:58:45;14.80;75.86
71047;SHT31;58703;48.978;8.982;2023-02-17T15:01:16;14.34;77.68
71047;SHT31;58703;48.978;8.982;2023-02-17T15:03:42;14.08;78.63
71047;SHT31;58703;48.978;8.982;2023-02-17T15:06:18;14.05;78.37
71047;SHT31;58703;48.978;8.982;2023-02-17T15:08:45;14.08;78.99
71047;SHT31;58703;48.978;8.982;2023-02-17T15:11:40;14.01;78.94
71047;SHT31;58703;48.978;8.982;2023-02-17T15:14:14;13.88;79.32
71047;SHT31;58703;48.978;8.982;2023-02-17T15:16:40;13.98;79.04
71047;SHT31;58703;48.978;8.982;2023-02-17T15:19:06;13.83;79.73
71047;SHT31;58703;48.978;8.982;2023-02-17T15:21:33;13.74;80.16
71047;SHT31;58703;48.978;8.982;2023-02-17T15:24:00;13.79;80.14
71047;SHT31;58703;48.978;8.982;2023-02-17T15:26:27;13.71;80.20
71047;SHT31;58703;48.978;8.982;2023-02-17T15:28:55;13.65;80.15
71047;SHT31;58703;48.978;8.982;2023-02-17T15:31:22;13.55;80.40
71047;SHT31;58703;48.978;8.982;2023-02-17T15:33:56;13.57;80.15
71047;SHT31;58703;48.978;8.982;2023-02-17T15:36:22;13.54;80.76
71047;SHT31;58703;48.978;8.982;2023-02-17T15:38:48;13.57;80.43
71047;SHT31;58703;48.978;8.982;2023-02-17T15:41:16;13.48;80.66
71047;SHT31;58703;48.978;8.982;2023-02-17T15:43:45;13.50;80.49
71047;SHT31;58703;48.978;8.982;2023-02-17T15:46:14;13.51;80.27
71047;SHT31;58703;48.978;8.982;2023-02-17T15:48:40;13.50;80.38
71047;SHT31;58703;48.978;8.982;2023-02-17T15:51:10;13.47;80.46
71047;SHT31;58703;48.978;8.982;2023-02-17T15:53:36;13.58;80.01
71047;SHT31;58703;48.978;8.982;2023-02-17T15:56:02;13.50;80.41
71047;SHT31;58703;48.978;8.982;2023-02-17T15:58:28;13.46;80.42
71047;SHT31;58703;48.978;8.982;2023-02-17T16:00:58;13.43;80.69
71047;SHT31;58703;48.978;8.982;2023-02-17T16:03:25;13.47;80.36
71047;SHT31;58703;48.978;8.982;2023-02-17T16:05:50;13.40;80.70
71047;SHT31;58703;48.978;8.982;2023-02-17T16:08:16;13.40;80.82
71047;SHT31;58703;48.978;8.982;2023-02-17T16:10:41;13.40;80.84
71047;SHT31;58703;48.978;8.982;2023-02-17T16:13:12;13.37;81.04
71047;SHT31;58703;48.978;8.982;2023-02-17T16:15:39;13.37;81.04
71047;SHT31;58703;48.978;8.982;2023-02-17T16:18:05;13.36;81.16
71047;SHT31;58703;48.978;8.982;2023-02-17T16:20:32;13.37;81.13
71047;SHT31;58703;48.978;8.982;2023-02-17T16:22:58;13.41;80.90
71047;SHT31;58703;48.978;8.982;2023-02-17T16:25:24;13.31;81.17
71047;SHT31;58703;48.978;8.982;2023-02-17T16:27:51;13.38;80.89
71047;SHT31;58703;48.978;8.982;2023-02-17T16:32:43;13.46;80.51
71047;SHT31;58703;48.978;8.982;2023-02-17T16:35:21;13.27;81.34
71047;SHT31;58703;48.978;8.982;2023-02-17T16:37:56;13.24;81.52
71047;SHT31;58703;48.978;8.982;2023-02-17T16:40:25;13.30;81.00
71047;SHT31;58703;48.978;8.982;2023-02-17T16:42:51;13.24;81.41
71047;SHT31;58703;48.978;8.982;2023-02-17T16:45:19;13.36;80.74
71047;SHT31;58703;48.978;8.982;2023-02-17T16:47:48;13.38;80.51
71047;SHT31;58703;48.978;8.982;2023-02-17T16:50:22;13.37;80.53
71047;SHT31;58703;48.978;8.982;2023-02-17T16:52:48;13.31;80.92
71047;SHT31;58703;48.978;8.982;2023-02-17T16:55:18;13.31;80.85
71047;SHT31;58703;48.978;8.982;2023-02-17T16:57:44;13.33;80.74
71047;SHT31;58703;48.978;8.982;2023-02-17T17:00:13;13.28;80.87
71047;SHT31;58703;48.978;8.982;2023-02-17T17:02:41;13.30;80.86
71047;SHT31;58703;48.978;8.982;2023-02-17T17:05:08;13.23;81.13
71047;SHT31;58703;48.978;8.982;2023-02-17T17:07:36;13.17;81.27
71047;SHT31;58703;48.978;8.982;2023-02-17T17:10:02;13.21;81.27
71047;SHT31;58703;48.978;8.982;2023-02-17T17:12:28;13.14;81.26
71047;SHT31;58703;48.978;8.982;2023-02-17T17:14:53;13.16;80.97
71047;SHT31;58703;48.978;8.982;2023-02-17T17:17:19;12.97;81.58
71047;SHT31;58703;48.978;8.982;2023-02-17T17:19:45;12.93;81.77